sensor_id;sensor_type;location;lat;lon;timestamp;P1;durP1;ratioP1;P2;durP2;ratioP2
39918;SDS011;25589;51.552;13.424;2023-05-23T00:01:01;5.07;;;4.43;;
39918;SDS011;25589;51.552;13.424;2023-05-23T00:03:27;5.82;;;4.43;;
39918;SDS011;25589;51.552;13.424;2023-05-23T00:05:55;9.82;;;5.07;;
39918;SDS011;25589;51.552;13.424;2023-05-23T00:08:21;7.00;;;4.82;;
39918;SDS011;25589;51.552;13.424;2023-05-23T00:10:46;7.35;;;4.65;;
39918;SDS011;25589;51.552;13.424;2023-05-23T00:13:12;8.98;;;5.03;;
39918;SDS011;25589;51.552;13.424;2023-05-23T00:15:38;5.28;;;4.53;;
39918;SDS011;25589;51.552;13.424;2023-05-23T00:18:07;7.90;;;3.80;;
39918;SDS011;25589;51.552;13.424;2023-05-23T00:20:35;6.68;;;4.40;;
39918;SDS011;25589;51.552;13.424;2023-05-23T00:23:04;6.50;;;4.53;;
39918;SDS011;25589;51.552;13.424;2023-05-23T00:25:32;6.93;;;4.53;;
39918;SDS011;25589;51.552;13.424;2023-05-23T00:28:00;8.35;;;4.50;;
39918;SDS011;25589;51.552;13.424;2023-05-23T00:30:29;6.20;;;4.75;;
39918;SDS011;25589;51.552;13.424;2023-05-23T00:32:56;7.43;;;4.75;;
39918;SDS011;25589;51.552;13.424;2023-05-23T00:35:21;8.60;;;4.10;;
39918;SDS011;25589;51.552;13.424;2023-05-23T00:37:48;10.02;;;4.88;;
39918;SDS011;25589;51.552;13.424;2023-05-23T00:40:17;6.82;;;5.45;;
39918;SDS011;25589;51.552;13.424;2023-05-23T00:42:43;7.30;;;4.88;;
39918;SDS011;25589;51.552;13.424;2023-05-23T00:45:09;6.47;;;4.55;;
39918;SDS011;25589;51.552;13.424;2023-05-23T00:47:36;6.57;;;4.40;;
39918;SDS011;25589;51.552;13.424;2023-05-23T00:50:03;12.57;;;4.07;;
39918;SDS011;25589;51.552;13.424;2023-05-23T00:52:32;7.70;;;4.43;;
39918;SDS011;25589;51.552;13.424;2023-05-23T00:54:58;5.88;;;4.10;;
39918;SDS011;25589;51.552;13.424;2023-05-23T00:57:24;5.70;;;4.05;;
39918;SDS011;25589;51.552;13.424;2023-05-23T00:59:51;8.32;;;5.10;;
39918;SDS011;25589;51.552;13.424;2023-05-23T01:02:16;6.15;;;4.40;;
39918;SDS011;25589;51.552;13.424;2023-05-23T01:04:43;7.47;;;4.38;;
39918;SDS011;25589;51.552;13.424;2023-05-23T01:07:08;8.77;;;4.32;;
39918;SDS011;25589;51.552;13.424;2023-05-23T01:09:35;13.30;;;4.90;;
39918;SDS011;25589;51.552;13.424;2023-05-23T01:17:33;8.43;;;4.28;;
39918;SDS011;25589;51.552;13.424;2023-05-23T01:20:13;9.38;;;5.15;;
39918;SDS011;25589;51.552;13.424;2023-05-23T01:25:27;7.70;;;4.25;;
39918;SDS011;25589;51.552;13.424;2023-05-23T01:28:02;8.65;;;5.10;;
39918;SDS011;25589;51.552;13.424;2023-05-23T01:30:31;6.30;;;4.47;;
39918;SDS011;25589;51.552;13.424;2023-05-23T01:33:02;6.05;;;5.05;;
39918;SDS011;25589;51.552;13.424;2023-05-23T01:35:28;6.35;;;4.55;;
39918;SDS011;25589;51.552;13.424;2023-05-23T01:37:56;10.73;;;4.75;;
39918;SDS011;25589;51.552;13.424;2023-05-23T01:40:22;7.05;;;4.80;;
39918;SDS011;25589;51.552;13.424;2023-05-23T01:42:50;6.00;;;4.75;;
39918;SDS011;25589;51.552;13.424;2023-05-23T01:45:17;7.38;;;4.55;;
39918;SDS011;25589;51.552;13.424;2023-05-23T01:47:44;7.97;;;4.35;;
39918;SDS011;25589;51.552;13.424;2023-05-23T01:50:13;8.43;;;4.57;;
39918;SDS011;25589;51.552;13.424;2023-05-23T01:52:39;7.00;;;4.70;;
39918;SDS011;25589;51.552;13.424;2023-05-23T01:55:05;9.45;;;4.80;;
39918;SDS011;25589;51.552;13.424;2023-05-23T01:57:34;5.97;;;4.05;;
39918;SDS011;25589;51.552;13.424;2023-05-23T02:00:05;6.45;;;4.72;;
39918;SDS011;25589;51.552;13.424;2023-05-23T02:02:38;7.65;;;4.50;;
39918;SDS011;25589;51.552;13.424;2023-05-23T02:05:04;5.45;;;4.43;;
39918;SDS011;25589;51.552;13.424;2023-05-23T02:10:18;6.72;;;4.72;;
39918;SDS011;25589;51.552;13.424;2023-05-23T02:12:44;8.77;;;4.38;;
39918;SDS011;25589;51.552;13.424;2023-05-23T02:15:10;7.75;;;4.38;;
39918;SDS011;25589;51.552;13.424;2023-05-23T02:17:35;9.68;;;5.07;;
39918;SDS011;25589;51.552;13.424;2023-05-23T02:20:04;5.82;;;4.53;;
39918;SDS011;25589;51.552;13.424;2023-05-23T02:22:30;10.40;;;5.05;;
39918;SDS011;25589;51.552;13.424;2023-05-23T02:24:56;6.68;;;4.93;;
39918;SDS011;25589;51.552;13.424;2023-05-23T02:27:21;9.27;;;4.50;;
39918;SDS011;25589;51.552;13.424;2023-05-23T02:29:47;6.50;;;4.78;;
39918;SDS011;25589;51.552;13.424;2023-05-23T02:32:13;8.43;;;4.35;;
39918;SDS011;25589;51.552;13.424;2023-05-23T02:34:38;9.55;;;4.78;;
39918;SDS011;25589;51.552;13.424;2023-05-23T02:37:04;6.93;;;4.90;;
39918;SDS011;25589;51.552;13.424;2023-05-23T02:39:30;5.93;;;4.18;;
39918;SDS011;25589;51.552;13.424;2023-05-23T02:41:56;7.22;;;4.40;;
39918;SDS011;25589;51.552;13.424;2023-05-23T02:44:21;8.02;;;4.78;;
39918;SDS011;25589;51.552;13.424;2023-05-23T02:46:47;6.75;;;4.82;;
39918;SDS011;25589;51.552;13.424;2023-05-23T02:49:12;7.32;;;4.78;;
39918;SDS011;25589;51.552;13.424;2023-05-23T02:51:38;6.85;;;4.88;;
39918;SDS011;25589;51.552;13.424;2023-05-23T02:54:04;5.32;;;4.55;;
39918;SDS011;25589;51.552;13.424;2023-05-23T02:56:33;6.25;;;5.05;;
39918;SDS011;25589;51.552;13.424;2023-05-23T02:58:59;5.20;;;4.55;;
39918;SDS011;25589;51.552;13.424;2023-05-23T03:01:24;6.45;;;4.70;;
39918;SDS011;25589;51.552;13.424;2023-05-23T03:03:50;6.22;;;4.30;;
39918;SDS011;25589;51.552;13.424;2023-05-23T03:06:15;5.90;;;4.47;;
39918;SDS011;25589;51.552;13.424;2023-05-23T03:08:42;8.73;;;4.57;;
39918;SDS011;25589;51.552;13.424;2023-05-23T03:11:07;8.13;;;4.22;;
39918;SDS011;25589;51.552;13.424;2023-05-23T03:13:33;6.10;;;4.63;;
39918;SDS011;25589;51.552;13.424;2023-05-23T03:16:00;7.55;;;4.50;;
39918;SDS011;25589;51.552;13.424;2023-05-23T03:18:26;6.45;;;4.65;;
39918;SDS011;25589;51.552;13.424;2023-05-23T03:20:51;16.92;;;4.72;;
39918;SDS011;25589;51.552;13.424;2023-05-23T03:23:20;7.18;;;4.82;;
39918;SDS011;25589;51.552;13.424;2023-05-23T03:25:46;9.77;;;5.55;;
39918;SDS011;25589;51.552;13.424;2023-05-23T03:28:11;6.88;;;4.75;;
39918;SDS011;25589;51.552;13.424;2023-05-23T03:30:37;6.30;;;4.85;;
39918;SDS011;25589;51.552;13.424;2023-05-23T03:33:03;6.70;;;4.60;;
39918;SDS011;25589;51.552;13.424;2023-05-23T03:35:28;8.07;;;4.78;;
39918;SDS011;25589;51.552;13.424;2023-05-23T03:37:54;8.35;;;5.15;;
39918;SDS011;25589;51.552;13.424;2023-05-23T03:40:20;5.38;;;4.82;;
39918;SDS011;25589;51.552;13.424;2023-05-23T03:42:47;7.47;;;4.38;;
39918;SDS011;25589;51.552;13.424;2023-05-23T03:45:13;5.68;;;4.50;;
39918;SDS011;25589;51.552;13.424;2023-05-23T03:47:40;5.22;;;4.25;;
39918;SDS011;25589;51.552;13.424;2023-05-23T03:50:07;5.25;;;4.40;;
39918;SDS011;25589;51.552;13.424;2023-05-23T03:52:33;9.73;;;4.93;;
39918;SDS011;25589;51.552;13.424;2023-05-23T03:54:59;8.48;;;4.28;;
39918;SDS011;25589;51.552;13.424;2023-05-23T03:57:25;7.70;;;4.47;;
39918;SDS011;25589;51.552;13.424;2023-05-23T03:59:50;5.70;;;4.63;;
39918;SDS011;25589;51.552;13.424;2023-05-23T04:02:17;7.15;;;4.18;;
39918;SDS011;25589;51.552;13.424;2023-05-23T04:04:43;5.88;;;4.75;;
39918;SDS011;25589;51.552;13.424;2023-05-23T04:07:08;6.50;;;5.07;;
39918;SDS011;25589;51.552;13.424;2023-05-23T04:09:36;5.53;;;4.35;;
39918;SDS011;25589;51.552;13.424;2023-05-23T04:12:04;6.47;;;4.55;;
39918;SDS011;25589;51.552;13.424;2023-05-23T04:14:33;7.40;;;5.47;;
39918;SDS011;25589;51.552;13.424;2023-05-23T04:16:59;8.75;;;5.43;;
39918;SDS011;25589;51.552;13.424;2023-05-23T04:19:25;6.82;;;4.38;;
39918;SDS011;25589;51.552;13.424;2023-05-23T04:21:51;7.68;;;4.90;;
39918;SDS011;25589;51.552;13.424;2023-05-23T04:24:16;6.43;;;5.53;;
39918;SDS011;25589;51.552;13.424;2023-05-23T04:26:42;5.88;;;4.70;;
39918;SDS011;25589;51.552;13.424;2023-05-23T04:29:08;6.20;;;4.70;;
39918;SDS011;25589;51.552;13.424;2023-05-23T04:31:36;6.88;;;4.82;;
39918;SDS011;25589;51.552;13.424;2023-05-23T04:34:02;7.70;;;5.38;;
39918;SDS011;25589;51.552;13.424;2023-05-23T04:36:29;8.65;;;5.47;;
39918;SDS011;25589;51.552;13.424;2023-05-23T04:38:54;7.68;;;5.60;;
39918;SDS011;25589;51.552;13.424;2023-05-23T04:41:20;6.68;;;5.03;;
39918;SDS011;25589;51.552;13.424;2023-05-23T04:44:05;8.20;;;5.38;;
39918;SDS011;25589;51.552;13.424;2023-05-23T04:46:36;7.35;;;5.57;;
39918;SDS011;25589;51.552;13.424;2023-05-23T04:49:10;10.30;;;5.40;;
39918;SDS011;25589;51.552;13.424;2023-05-23T04:51:37;6.97;;;5.63;;
39918;SDS011;25589;51.552;13.424;2023-05-23T04:54:15;7.78;;;6.07;;
39918;SDS011;25589;51.552;13.424;2023-05-23T04:56:41;11.55;;;7.00;;
39918;SDS011;25589;51.552;13.424;2023-05-23T04:59:07;9.23;;;6.07;;
39918;SDS011;25589;51.552;13.424;2023-05-23T05:01:35;11.18;;;6.82;;
39918;SDS011;25589;51.552;13.424;2023-05-23T05:04:04;8.70;;;7.05;;
39918;SDS011;25589;51.552;13.424;2023-05-23T05:06:30;9.80;;;7.07;;
39918;SDS011;25589;51.552;13.424;2023-05-23T05:08:56;8.55;;;7.00;;
39918;SDS011;25589;51.552;13.424;2023-05-23T05:11:22;9.93;;;6.60;;
39918;SDS011;25589;51.552;13.424;2023-05-23T05:13:47;9.88;;;6.95;;
39918;SDS011;25589;51.552;13.424;2023-05-23T05:16:13;10.50;;;7.07;;
39918;SDS011;25589;51.552;13.424;2023-05-23T05:18:39;9.85;;;6.88;;
39918;SDS011;25589;51.552;13.424;2023-05-23T05:21:04;7.60;;;6.57;;
39918;SDS011;25589;51.552;13.424;2023-05-23T05:23:30;12.98;;;6.45;;
39918;SDS011;25589;51.552;13.424;2023-05-23T05:25:58;7.25;;;6.05;;
39918;SDS011;25589;51.552;13.424;2023-05-23T05:28:24;6.90;;;6.00;;
39918;SDS011;25589;51.552;13.424;2023-05-23T05:30:50;12.43;;;6.63;;
39918;SDS011;25589;51.552;13.424;2023-05-23T05:33:20;7.47;;;5.55;;
39918;SDS011;25589;51.552;13.424;2023-05-23T05:35:55;9.90;;;6.25;;
39918;SDS011;25589;51.552;13.424;2023-05-23T05:38:22;9.90;;;5.80;;
39918;SDS011;25589;51.552;13.424;2023-05-23T05:40:47;11.35;;;6.40;;
39918;SDS011;25589;51.552;13.424;2023-05-23T05:43:14;12.35;;;6.10;;
39918;SDS011;25589;51.552;13.424;2023-05-23T05:45:40;9.90;;;6.45;;
39918;SDS011;25589;51.552;13.424;2023-05-23T05:48:06;9.48;;;6.45;;
39918;SDS011;25589;51.552;13.424;2023-05-23T05:50:33;10.75;;;5.82;;
39918;SDS011;25589;51.552;13.424;2023-05-23T05:52:58;8.38;;;5.57;;
39918;SDS011;25589;51.552;13.424;2023-05-23T05:55:24;7.10;;;5.72;;
39918;SDS011;25589;51.552;13.424;2023-05-23T05:57:52;10.88;;;5.80;;
39918;SDS011;25589;51.552;13.424;2023-05-23T06:00:18;11.63;;;5.47;;
39918;SDS011;25589;51.552;13.424;2023-05-23T06:02:44;8.77;;;5.82;;
39918;SDS011;25589;51.552;13.424;2023-05-23T06:05:36;6.97;;;5.68;;
39918;SDS011;25589;51.552;13.424;2023-05-23T06:08:02;9.65;;;5.72;;
39918;SDS011;25589;51.552;13.424;2023-05-23T06:10:27;9.93;;;5.68;;
39918;SDS011;25589;51.552;13.424;2023-05-23T06:12:53;6.63;;;5.75;;
39918;SDS011;25589;51.552;13.424;2023-05-23T06:15:19;8.13;;;5.93;;
39918;SDS011;25589;51.552;13.424;2023-05-23T06:17:45;8.02;;;5.55;;
39918;SDS011;25589;51.552;13.424;2023-05-23T06:20:11;8.98;;;5.60;;
39918;SDS011;25589;51.552;13.424;2023-05-23T06:22:41;8.18;;;5.90;;
39918;SDS011;25589;51.552;13.424;2023-05-23T06:25:06;8.88;;;5.88;;
39918;SDS011;25589;51.552;13.424;2023-05-23T06:27:32;8.30;;;5.93;;
39918;SDS011;25589;51.552;13.424;2023-05-23T06:29:58;9.77;;;5.97;;
39918;SDS011;25589;51.552;13.424;2023-05-23T06:32:23;8.40;;;6.13;;
39918;SDS011;25589;51.552;13.424;2023-05-23T06:34:49;7.43;;;6.00;;
39918;SDS011;25589;51.552;13.424;2023-05-23T06:37:15;8.60;;;6.30;;
39918;SDS011;25589;51.552;13.424;2023-05-23T06:39:42;10.98;;;6.50;;
39918;SDS011;25589;51.552;13.424;2023-05-23T06:42:07;10.05;;;6.60;;
39918;SDS011;25589;51.552;13.424;2023-05-23T06:44:48;12.88;;;6.32;;
39918;SDS011;25589;51.552;13.424;2023-05-23T06:47:17;7.03;;;5.63;;
39918;SDS011;25589;51.552;13.424;2023-05-23T06:49:42;6.68;;;5.50;;
39918;SDS011;25589;51.552;13.424;2023-05-23T06:52:08;8.05;;;6.18;;
39918;SDS011;25589;51.552;13.424;2023-05-23T06:54:34;9.45;;;5.97;;
39918;SDS011;25589;51.552;13.424;2023-05-23T06:56:59;10.38;;;7.15;;
39918;SDS011;25589;51.552;13.424;2023-05-23T06:59:25;7.95;;;6.32;;
39918;SDS011;25589;51.552;13.424;2023-05-23T07:01:51;12.85;;;6.07;;
39918;SDS011;25589;51.552;13.424;2023-05-23T07:04:16;8.57;;;6.78;;
39918;SDS011;25589;51.552;13.424;2023-05-23T07:06:43;9.60;;;6.07;;
39918;SDS011;25589;51.552;13.424;2023-05-23T07:09:08;8.50;;;6.40;;
39918;SDS011;25589;51.552;13.424;2023-05-23T07:11:36;9.48;;;6.60;;
39918;SDS011;25589;51.552;13.424;2023-05-23T07:14:04;9.35;;;6.85;;
39918;SDS011;25589;51.552;13.424;2023-05-23T07:16:35;8.07;;;6.75;;
39918;SDS011;25589;51.552;13.424;2023-05-23T07:19:04;8.10;;;6.85;;
39918;SDS011;25589;51.552;13.424;2023-05-23T07:21:32;11.40;;;7.70;;
39918;SDS011;25589;51.552;13.424;2023-05-23T07:23:59;9.27;;;7.93;;
39918;SDS011;25589;51.552;13.424;2023-05-23T07:26:26;9.27;;;7.70;;
39918;SDS011;25589;51.552;13.424;2023-05-23T07:28:54;10.05;;;8.00;;
39918;SDS011;25589;51.552;13.424;2023-05-23T07:31:20;11.50;;;7.63;;
39918;SDS011;25589;51.552;13.424;2023-05-23T07:33:47;9.93;;;7.53;;
39918;SDS011;25589;51.552;13.424;2023-05-23T07:38:46;11.20;;;7.50;;
39918;SDS011;25589;51.552;13.424;2023-05-23T07:41:12;8.45;;;7.22;;
39918;SDS011;25589;51.552;13.424;2023-05-23T07:43:39;12.18;;;7.63;;
39918;SDS011;25589;51.552;13.424;2023-05-23T07:46:05;9.75;;;7.13;;
39918;SDS011;25589;51.552;13.424;2023-05-23T07:48:30;11.77;;;7.63;;
39918;SDS011;25589;51.552;13.424;2023-05-23T07:50:56;11.43;;;6.60;;
39918;SDS011;25589;51.552;13.424;2023-05-23T07:53:22;12.30;;;6.82;;
39918;SDS011;25589;51.552;13.424;2023-05-23T07:55:48;8.23;;;6.82;;
39918;SDS011;25589;51.552;13.424;2023-05-23T07:58:14;13.18;;;6.90;;
39918;SDS011;25589;51.552;13.424;2023-05-23T08:00:40;9.43;;;7.55;;
39918;SDS011;25589;51.552;13.424;2023-05-23T08:03:16;7.82;;;6.70;;
39918;SDS011;25589;51.552;13.424;2023-05-23T08:05:52;10.80;;;7.45;;
39918;SDS011;25589;51.552;13.424;2023-05-23T08:08:18;13.25;;;7.50;;
39918;SDS011;25589;51.552;13.424;2023-05-23T08:10:44;10.88;;;7.20;;
39918;SDS011;25589;51.552;13.424;2023-05-23T08:13:18;9.45;;;7.15;;
39918;SDS011;25589;51.552;13.424;2023-05-23T08:16:03;8.60;;;6.38;;
39918;SDS011;25589;51.552;13.424;2023-05-23T08:18:29;8.50;;;6.57;;
39918;SDS011;25589;51.552;13.424;2023-05-23T08:20:55;7.60;;;6.18;;
39918;SDS011;25589;51.552;13.424;2023-05-23T08:23:21;10.35;;;6.82;;
39918;SDS011;25589;51.552;13.424;2023-05-23T08:25:47;8.50;;;7.13;;
39918;SDS011;25589;51.552;13.424;2023-05-23T08:28:12;16.45;;;7.10;;
39918;SDS011;25589;51.552;13.424;2023-05-23T08:30:56;10.20;;;7.00;;
39918;SDS011;25589;51.552;13.424;2023-05-23T08:33:23;13.02;;;6.88;;
39918;SDS011;25589;51.552;13.424;2023-05-23T08:35:52;11.60;;;7.03;;
39918;SDS011;25589;51.552;13.424;2023-05-23T08:38:18;9.38;;;7.45;;
39918;SDS011;25589;51.552;13.424;2023-05-23T08:41:01;7.72;;;6.80;;
39918;SDS011;25589;51.552;13.424;2023-05-23T08:43:29;7.55;;;6.75;;
39918;SDS011;25589;51.552;13.424;2023-05-23T08:45:55;7.85;;;6.63;;
39918;SDS011;25589;51.552;13.424;2023-05-23T08:48:22;7.63;;;6.40;;
39918;SDS011;25589;51.552;13.424;2023-05-23T08:50:51;9.95;;;7.20;;
39918;SDS011;25589;51.552;13.424;2023-05-23T08:53:19;11.77;;;7.93;;
39918;SDS011;25589;51.552;13.424;2023-05-23T08:55:51;8.10;;;7.22;;
39918;SDS011;25589;51.552;13.424;2023-05-23T08:58:19;9.25;;;6.78;;
39918;SDS011;25589;51.552;13.424;2023-05-23T09:00:51;7.50;;;6.70;;
39918;SDS011;25589;51.552;13.424;2023-05-23T09:03:18;8.50;;;7.18;;
39918;SDS011;25589;51.552;13.424;2023-05-23T09:06:07;7.78;;;6.90;;
39918;SDS011;25589;51.552;13.424;2023-05-23T09:08:34;8.50;;;7.47;;
39918;SDS011;25589;51.552;13.424;2023-05-23T09:11:01;8.63;;;7.05;;
39918;SDS011;25589;51.552;13.424;2023-05-23T09:13:30;14.38;;;7.63;;
39918;SDS011;25589;51.552;13.424;2023-05-23T09:16:08;14.45;;;10.55;;
39918;SDS011;25589;51.552;13.424;2023-05-23T09:18:47;20.15;;;14.40;;
39918;SDS011;25589;51.552;13.424;2023-05-23T09:21:15;19.98;;;14.18;;
39918;SDS011;25589;51.552;13.424;2023-05-23T09:23:52;23.60;;;15.55;;
39918;SDS011;25589;51.552;13.424;2023-05-23T09:26:19;21.80;;;15.38;;
39918;SDS011;25589;51.552;13.424;2023-05-23T09:28:45;20.88;;;15.07;;
39918;SDS011;25589;51.552;13.424;2023-05-23T09:31:11;19.55;;;13.73;;
39918;SDS011;25589;51.552;13.424;2023-05-23T09:33:42;18.95;;;13.48;;
39918;SDS011;25589;51.552;13.424;2023-05-23T09:36:11;20.35;;;12.93;;
39918;SDS011;25589;51.552;13.424;2023-05-23T09:38:40;16.05;;;11.15;;
39918;SDS011;25589;51.552;13.424;2023-05-23T09:41:11;15.20;;;10.57;;
39918;SDS011;25589;51.552;13.424;2023-05-23T09:43:37;19.73;;;10.90;;
39918;SDS011;25589;51.552;13.424;2023-05-23T09:46:17;16.25;;;9.52;;
39918;SDS011;25589;51.552;13.424;2023-05-23T09:48:49;14.23;;;8.65;;
39918;SDS011;25589;51.552;13.424;2023-05-23T09:51:17;17.25;;;9.15;;
39918;SDS011;25589;51.552;13.424;2023-05-23T09:53:47;10.80;;;7.82;;
39918;SDS011;25589;51.552;13.424;2023-05-23T09:56:14;18.30;;;8.23;;
39918;SDS011;25589;51.552;13.424;2023-05-23T09:58:42;16.77;;;8.20;;
39918;SDS011;25589;51.552;13.424;2023-05-23T10:01:10;9.85;;;6.95;;
39918;SDS011;25589;51.552;13.424;2023-05-23T10:03:52;8.88;;;7.03;;
39918;SDS011;25589;51.552;13.424;2023-05-23T10:06:25;10.38;;;6.63;;
39918;SDS011;25589;51.552;13.424;2023-05-23T10:13:58;10.23;;;6.43;;
39918;SDS011;25589;51.552;13.424;2023-05-23T10:16:27;8.32;;;6.45;;
39918;SDS011;25589;51.552;13.424;2023-05-23T10:19:19;8.83;;;6.90;;
39918;SDS011;25589;51.552;13.424;2023-05-23T10:21:53;10.35;;;6.68;;
39918;SDS011;25589;51.552;13.424;2023-05-23T10:24:24;13.05;;;7.45;;
39918;SDS011;25589;51.552;13.424;2023-05-23T10:26:53;9.43;;;7.38;;
39918;SDS011;25589;51.552;13.424;2023-05-23T10:29:23;13.57;;;7.35;;
39918;SDS011;25589;51.552;13.424;2023-05-23T10:31:49;10.80;;;6.85;;
39918;SDS011;25589;51.552;13.424;2023-05-23T10:41:58;8.55;;;6.47;;
39918;SDS011;25589;51.552;13.424;2023-05-23T10:44:31;8.68;;;6.90;;
39918;SDS011;25589;51.552;13.424;2023-05-23T10:46:58;9.43;;;7.00;;
39918;SDS011;25589;51.552;13.424;2023-05-23T10:49:40;10.70;;;6.53;;
39918;SDS011;25589;51.552;13.424;2023-05-23T10:52:16;7.88;;;5.85;;
39918;SDS011;25589;51.552;13.424;2023-05-23T10:54:43;8.80;;;6.80;;
39918;SDS011;25589;51.552;13.424;2023-05-23T10:57:35;9.38;;;7.65;;
39918;SDS011;25589;51.552;13.424;2023-05-23T11:00:00;9.65;;;6.07;;
39918;SDS011;25589;51.552;13.424;2023-05-23T11:02:26;8.55;;;6.50;;
39918;SDS011;25589;51.552;13.424;2023-05-23T11:07:43;8.25;;;6.70;;
39918;SDS011;25589;51.552;13.424;2023-05-23T11:10:10;7.10;;;6.28;;
39918;SDS011;25589;51.552;13.424;2023-05-23T11:12:39;12.88;;;6.80;;
39918;SDS011;25589;51.552;13.424;2023-05-23T11:17:47;8.02;;;6.40;;
39918;SDS011;25589;51.552;13.424;2023-05-23T11:20:18;6.93;;;6.22;;
39918;SDS011;25589;51.552;13.424;2023-05-23T11:23:01;6.80;;;6.07;;
39918;SDS011;25589;51.552;13.424;2023-05-23T11:28:13;7.97;;;6.75;;
39918;SDS011;25589;51.552;13.424;2023-05-23T11:30:39;7.78;;;6.18;;
39918;SDS011;25589;51.552;13.424;2023-05-23T11:33:12;8.30;;;6.50;;
39918;SDS011;25589;51.552;13.424;2023-05-23T11:35:41;7.50;;;6.03;;
39918;SDS011;25589;51.552;13.424;2023-05-23T11:38:08;6.10;;;5.45;;
39918;SDS011;25589;51.552;13.424;2023-05-23T11:43:04;8.93;;;5.50;;
39918;SDS011;25589;51.552;13.424;2023-05-23T11:45:34;6.82;;;5.78;;
39918;SDS011;25589;51.552;13.424;2023-05-23T11:48:08;6.72;;;5.88;;
39918;SDS011;25589;51.552;13.424;2023-05-23T11:50:46;5.43;;;4.93;;
39918;SDS011;25589;51.552;13.424;2023-05-23T11:53:13;5.93;;;5.20;;
39918;SDS011;25589;51.552;13.424;2023-05-23T11:55:51;8.70;;;5.50;;
39918;SDS011;25589;51.552;13.424;2023-05-23T11:58:26;6.75;;;5.68;;
39918;SDS011;25589;51.552;13.424;2023-05-23T12:01:00;5.90;;;5.30;;
39918;SDS011;25589;51.552;13.424;2023-05-23T12:03:30;7.55;;;4.75;;
39918;SDS011;25589;51.552;13.424;2023-05-23T12:05:56;9.60;;;5.60;;
39918;SDS011;25589;51.552;13.424;2023-05-23T12:08:22;6.85;;;4.82;;
39918;SDS011;25589;51.552;13.424;2023-05-23T12:10:52;10.95;;;6.45;;
39918;SDS011;25589;51.552;13.424;2023-05-23T12:13:24;6.65;;;5.90;;
39918;SDS011;25589;51.552;13.424;2023-05-23T12:15:52;6.22;;;5.60;;
39918;SDS011;25589;51.552;13.424;2023-05-23T12:18:31;6.22;;;5.60;;
39918;SDS011;25589;51.552;13.424;2023-05-23T12:21:04;5.85;;;5.30;;
39918;SDS011;25589;51.552;13.424;2023-05-23T12:23:32;7.25;;;5.90;;
39918;SDS011;25589;51.552;13.424;2023-05-23T12:25:58;7.28;;;5.57;;
39918;SDS011;25589;51.552;13.424;2023-05-23T12:28:36;5.68;;;5.18;;
39918;SDS011;25589;51.552;13.424;2023-05-23T12:31:16;6.93;;;6.22;;
39918;SDS011;25589;51.552;13.424;2023-05-23T12:33:43;6.85;;;6.15;;
39918;SDS011;25589;51.552;13.424;2023-05-23T12:36:13;7.15;;;6.07;;
39918;SDS011;25589;51.552;13.424;2023-05-23T12:38:40;5.90;;;5.30;;
39918;SDS011;25589;51.552;13.424;2023-05-23T12:41:15;6.10;;;5.50;;
39918;SDS011;25589;51.552;13.424;2023-05-23T12:43:49;8.13;;;5.72;;
39918;SDS011;25589;51.552;13.424;2023-05-23T12:46:16;8.15;;;6.03;;
39918;SDS011;25589;51.552;13.424;2023-05-23T12:48:41;5.97;;;5.10;;
39918;SDS011;25589;51.552;13.424;2023-05-23T12:51:07;6.35;;;5.13;;
39918;SDS011;25589;51.552;13.424;2023-05-23T12:53:32;7.40;;;5.35;;
39918;SDS011;25589;51.552;13.424;2023-05-23T12:55:58;6.07;;;5.07;;
39918;SDS011;25589;51.552;13.424;2023-05-23T12:58:24;5.95;;;4.85;;
39918;SDS011;25589;51.552;13.424;2023-05-23T13:00:50;6.18;;;4.75;;
39918;SDS011;25589;51.552;13.424;2023-05-23T13:03:15;6.45;;;5.30;;
39918;SDS011;25589;51.552;13.424;2023-05-23T13:05:41;10.25;;;5.18;;
39918;SDS011;25589;51.552;13.424;2023-05-23T13:08:07;5.45;;;4.93;;
39918;SDS011;25589;51.552;13.424;2023-05-23T13:10:32;5.32;;;4.55;;
39918;SDS011;25589;51.552;13.424;2023-05-23T13:12:58;7.40;;;5.40;;
39918;SDS011;25589;51.552;13.424;2023-05-23T13:15:24;6.50;;;4.97;;
39918;SDS011;25589;51.552;13.424;2023-05-23T13:17:49;6.40;;;5.03;;
39918;SDS011;25589;51.552;13.424;2023-05-23T13:20:15;6.80;;;5.18;;
39918;SDS011;25589;51.552;13.424;2023-05-23T13:22:41;5.85;;;4.40;;
39918;SDS011;25589;51.552;13.424;2023-05-23T13:25:07;4.68;;;4.13;;
39918;SDS011;25589;51.552;13.424;2023-05-23T13:27:33;6.15;;;4.88;;
39918;SDS011;25589;51.552;13.424;2023-05-23T13:29:58;5.90;;;4.68;;
39918;SDS011;25589;51.552;13.424;2023-05-23T13:32:24;4.95;;;4.22;;
39918;SDS011;25589;51.552;13.424;2023-05-23T13:34:50;5.47;;;4.10;;
39918;SDS011;25589;51.552;13.424;2023-05-23T13:37:16;7.32;;;4.05;;
39918;SDS011;25589;51.552;13.424;2023-05-23T13:39:42;4.20;;;3.63;;
39918;SDS011;25589;51.552;13.424;2023-05-23T13:42:08;5.07;;;3.70;;
39918;SDS011;25589;51.552;13.424;2023-05-23T13:44:34;6.47;;;3.92;;
39918;SDS011;25589;51.552;13.424;2023-05-23T13:47:10;4.95;;;3.67;;
39918;SDS011;25589;51.552;13.424;2023-05-23T13:49:36;6.60;;;3.95;;
39918;SDS011;25589;51.552;13.424;2023-05-23T13:52:02;5.20;;;3.20;;
39918;SDS011;25589;51.552;13.424;2023-05-23T13:54:28;4.05;;;2.60;;
39918;SDS011;25589;51.552;13.424;2023-05-23T13:56:53;3.42;;;2.70;;
39918;SDS011;25589;51.552;13.424;2023-05-23T13:59:19;2.92;;;2.70;;
39918;SDS011;25589;51.552;13.424;2023-05-23T14:01:48;3.15;;;2.75;;
39918;SDS011;25589;51.552;13.424;2023-05-23T14:04:13;2.65;;;2.45;;
39918;SDS011;25589;51.552;13.424;2023-05-23T14:06:39;4.30;;;2.80;;
39918;SDS011;25589;51.552;13.424;2023-05-23T14:09:05;3.38;;;3.08;;
39918;SDS011;25589;51.552;13.424;2023-05-23T14:11:31;4.03;;;3.13;;
39918;SDS011;25589;51.552;13.424;2023-05-23T14:13:57;7.68;;;6.55;;
39918;SDS011;25589;51.552;13.424;2023-05-23T14:16:23;3.30;;;3.00;;
39918;SDS011;25589;51.552;13.424;2023-05-23T14:18:48;3.95;;;3.00;;
39918;SDS011;25589;51.552;13.424;2023-05-23T14:21:14;4.05;;;2.53;;
39918;SDS011;25589;51.552;13.424;2023-05-23T14:23:40;2.70;;;2.50;;
39918;SDS011;25589;51.552;13.424;2023-05-23T14:26:05;3.03;;;2.83;;
39918;SDS011;25589;51.552;13.424;2023-05-23T14:28:31;5.50;;;5.00;;
39918;SDS011;25589;51.552;13.424;2023-05-23T14:30:57;3.00;;;2.75;;
39918;SDS011;25589;51.552;13.424;2023-05-23T14:33:23;3.83;;;3.50;;
39918;SDS011;25589;51.552;13.424;2023-05-23T14:35:49;2.40;;;2.20;;
39918;SDS011;25589;51.552;13.424;2023-05-23T14:38:15;2.10;;;1.90;;
39918;SDS011;25589;51.552;13.424;2023-05-23T14:40:41;2.40;;;2.20;;
39918;SDS011;25589;51.552;13.424;2023-05-23T14:43:07;2.90;;;2.60;;
39918;SDS011;25589;51.552;13.424;2023-05-23T14:45:33;2.45;;;2.05;;
39918;SDS011;25589;51.552;13.424;2023-05-23T14:47:58;2.45;;;2.25;;
39918;SDS011;25589;51.552;13.424;2023-05-23T14:50:24;4.03;;;2.45;;
39918;SDS011;25589;51.552;13.424;2023-05-23T14:52:50;2.30;;;1.98;;
39918;SDS011;25589;51.552;13.424;2023-05-23T14:55:16;2.03;;;1.90;;
39918;SDS011;25589;51.552;13.424;2023-05-23T14:57:42;2.40;;;2.20;;
39918;SDS011;25589;51.552;13.424;2023-05-23T15:00:07;3.85;;;2.60;;
39918;SDS011;25589;51.552;13.424;2023-05-23T15:02:35;2.58;;;2.38;;
39918;SDS011;25589;51.552;13.424;2023-05-23T15:05:02;2.38;;;2.17;;
39918;SDS011;25589;51.552;13.424;2023-05-23T15:07:28;3.22;;;2.30;;
39918;SDS011;25589;51.552;13.424;2023-05-23T15:09:54;2.08;;;1.98;;
39918;SDS011;25589;51.552;13.424;2023-05-23T15:12:20;2.60;;;1.98;;